createdAt,value
2023-03-10T00:00:58.158Z,10.02
2023-03-10T00:01:59.898Z,9.99
2023-03-10T00:03:01.630Z,9.98
2023-03-10T00:04:03.419Z,9.95
2023-03-10T00:05:05.085Z,9.94
2023-03-10T00:06:06.919Z,9.93
2023-03-10T00:07:08.549Z,9.91
2023-03-10T00:08:10.310Z,9.9
2023-03-10T00:09:12.039Z,9.88
2023-03-10T00:10:13.745Z,9.88
2023-03-10T00:11:15.497Z,9.87
2023-03-10T00:12:17.236Z,9.85
2023-03-10T00:13:18.801Z,9.82
2023-03-10T00:14:20.550Z,9.8
2023-03-10T00:15:22.257Z,9.81
2023-03-10T00:16:24.014Z,9.8
2023-03-10T00:17:25.757Z,9.78
2023-03-10T00:18:27.469Z,9.77
2023-03-10T00:19:29.201Z,9.77
2023-03-10T00:20:30.974Z,9.75
2023-03-10T00:21:32.690Z,9.73
2023-03-10T00:22:34.416Z,9.72
2023-03-10T00:23:37.521Z,9.73
2023-03-10T00:24:37.859Z,9.71
2023-03-10T00:25:39.620Z,9.71
2023-03-10T00:26:41.341Z,9.7
2023-03-10T00:27:43.071Z,9.7
2023-03-10T00:28:44.817Z,9.69
2023-03-10T00:29:46.533Z,9.68
2023-03-10T00:30:48.354Z,9.68
2023-03-10T00:31:50.007Z,9.68
2023-03-10T00:32:51.812Z,9.68
2023-03-10T00:33:53.489Z,9.68
2023-03-10T00:34:55.196Z,9.69
2023-03-10T00:35:56.979Z,9.69
2023-03-10T00:36:58.670Z,9.7
2023-03-10T00:38:00.397Z,9.7
2023-03-10T00:39:02.153Z,9.69
2023-03-10T00:40:03.870Z,9.71
2023-03-10T00:41:05.633Z,9.71
2023-03-10T00:42:07.370Z,9.71
2023-03-10T00:43:09.095Z,9.71
2023-03-10T00:44:10.820Z,9.71
2023-03-10T00:45:12.564Z,9.72
2023-03-10T00:46:14.364Z,9.71
2023-03-10T00:47:16.036Z,9.7
2023-03-10T00:48:17.750Z,9.71
2023-03-10T00:49:19.487Z,9.7
2023-03-10T00:50:21.226Z,9.7
2023-03-10T00:51:22.962Z,9.71
2023-03-10T00:52:24.691Z,9.71
2023-03-10T00:53:26.438Z,9.71
2023-03-10T00:54:28.149Z,9.7
2023-03-10T00:55:29.888Z,9.7
2023-03-10T00:56:31.642Z,9.7
2023-03-10T00:57:33.377Z,9.69
2023-03-10T00:58:35.102Z,9.68
2023-03-10T00:59:49.318Z,9.7
2023-03-10T01:00:38.572Z,9.7
2023-03-10T01:01:40.687Z,9.7
2023-03-10T01:02:42.284Z,9.7
2023-03-10T01:03:43.931Z,9.7
2023-03-10T01:04:45.792Z,9.69
2023-03-10T01:05:47.418Z,9.7
2023-03-10T01:06:49.148Z,9.7
2023-03-10T01:07:50.868Z,9.71
2023-03-10T01:08:52.610Z,9.7
2023-03-10T01:09:54.339Z,9.71
2023-03-10T01:10:56.078Z,9.71
2023-03-10T01:11:57.817Z,9.7
2023-03-10T01:12:59.537Z,9.71
2023-03-10T01:14:01.283Z,9.7
2023-03-10T01:15:03.017Z,9.71
2023-03-10T01:16:04.827Z,9.72
2023-03-10T01:17:06.484Z,9.72
2023-03-10T01:18:08.246Z,9.73
2023-03-10T01:19:09.978Z,9.74
2023-03-10T01:20:11.692Z,9.74
2023-03-10T01:21:13.412Z,9.73
2023-03-10T01:22:15.163Z,9.74
2023-03-10T01:23:16.870Z,9.75
2023-03-10T01:24:18.621Z,9.75
2023-03-10T01:25:20.354Z,9.74
2023-03-10T01:26:22.077Z,9.72
2023-03-10T01:27:23.837Z,9.74
2023-03-10T01:28:25.538Z,9.73
2023-03-10T01:29:27.295Z,9.73
2023-03-10T01:30:29.013Z,9.72
2023-03-10T01:31:30.880Z,9.71
2023-03-10T01:32:32.566Z,9.7
2023-03-10T01:33:34.226Z,9.69
2023-03-10T01:34:35.953Z,9.68
2023-03-10T01:35:37.751Z,9.67
2023-03-10T01:36:39.415Z,9.65
2023-03-10T01:37:43.383Z,9.65
2023-03-10T01:38:42.888Z,9.63
2023-03-10T01:39:44.626Z,9.61
2023-03-10T01:40:46.363Z,9.6
2023-03-10T01:41:48.092Z,9.58
2023-03-10T01:42:49.827Z,9.57
2023-03-10T01:43:51.598Z,9.57
2023-03-10T01:44:53.311Z,9.57
2023-03-10T01:45:55.056Z,9.56
2023-03-10T01:46:56.848Z,9.55
2023-03-10T01:47:58.505Z,9.55
2023-03-10T01:49:00.233Z,9.55
2023-03-10T01:50:01.973Z,9.56
2023-03-10T01:51:03.698Z,9.55
2023-03-10T01:52:05.424Z,9.55
2023-03-10T01:53:07.176Z,9.54
2023-03-10T01:54:08.898Z,9.54
2023-03-10T01:55:10.637Z,9.54
2023-03-10T01:56:12.355Z,9.53
2023-03-10T01:57:14.110Z,9.52
2023-03-10T01:58:15.857Z,9.52
2023-03-10T01:59:17.565Z,9.5
2023-03-10T02:00:19.295Z,9.5
2023-03-10T02:01:21.079Z,9.49
2023-03-10T02:02:22.969Z,9.49
2023-03-10T02:03:24.524Z,9.49
2023-03-10T02:04:26.236Z,9.47
2023-03-10T02:05:27.960Z,9.47
2023-03-10T02:06:29.755Z,9.47
2023-03-10T02:07:31.439Z,9.46
2023-03-10T02:08:33.166Z,9.45
2023-03-10T02:09:34.902Z,9.45
2023-03-10T02:10:36.613Z,9.45
2023-03-10T02:11:38.360Z,9.44
2023-03-10T02:12:40.090Z,9.42
2023-03-10T02:13:41.896Z,9.42
2023-03-10T02:14:43.574Z,9.4
2023-03-10T02:15:45.309Z,9.39
2023-03-10T02:16:47.138Z,9.36
2023-03-10T02:17:48.866Z,9.35
2023-03-10T02:18:50.496Z,9.33
2023-03-10T02:19:52.265Z,9.32
2023-03-10T02:20:53.989Z,9.31
2023-03-10T02:21:55.694Z,9.31
2023-03-10T02:22:57.432Z,9.29
2023-03-10T02:24:01.718Z,9.27
2023-03-10T02:25:00.908Z,9.26
2023-03-10T02:26:02.629Z,9.25
2023-03-10T02:27:04.376Z,9.25
2023-03-10T02:28:06.115Z,9.25
2023-03-10T02:29:07.862Z,9.25
2023-03-10T02:30:09.576Z,9.25
2023-03-10T02:31:11.377Z,9.25
2023-03-10T02:32:13.048Z,9.25
2023-03-10T02:33:14.786Z,9.24
2023-03-10T02:34:16.508Z,9.24
2023-03-10T02:35:18.246Z,9.23
2023-03-10T02:36:19.964Z,9.22
2023-03-10T02:37:21.716Z,9.19
2023-03-10T02:38:23.450Z,9.16
2023-03-10T02:39:25.188Z,9.11
2023-03-10T02:40:26.932Z,9.09
2023-03-10T02:41:28.659Z,9.07
2023-03-10T02:42:30.379Z,9.04
2023-03-10T02:43:32.133Z,9.02
2023-03-10T02:44:33.869Z,9.01
2023-03-10T02:45:35.733Z,8.99
2023-03-10T02:46:37.309Z,8.97
2023-03-10T02:47:39.046Z,8.97
2023-03-10T02:48:40.779Z,8.96
2023-03-10T02:49:42.537Z,8.95
2023-03-10T02:50:44.269Z,8.95
2023-03-10T02:51:46.000Z,8.94
2023-03-10T02:52:47.718Z,8.94
2023-03-10T02:53:49.468Z,8.92
2023-03-10T02:54:51.192Z,8.93
2023-03-10T02:55:52.911Z,8.92
2023-03-10T02:56:54.652Z,8.92
2023-03-10T02:57:56.392Z,8.92
2023-03-10T02:58:58.131Z,8.91
2023-03-10T02:59:59.872Z,8.91
2023-03-10T03:01:01.641Z,8.91
2023-03-10T03:02:03.328Z,8.9
2023-03-10T03:03:05.073Z,8.89
2023-03-10T03:04:06.876Z,8.9
2023-03-10T03:05:08.539Z,8.89
2023-03-10T03:06:10.272Z,8.88
2023-03-10T03:07:12.017Z,8.88
2023-03-10T03:08:13.729Z,8.87
2023-03-10T03:09:15.493Z,8.87
2023-03-10T03:10:17.244Z,8.86
2023-03-10T03:11:18.936Z,8.86
2023-03-10T03:12:20.665Z,8.86
2023-03-10T03:13:22.412Z,8.85
2023-03-10T03:14:24.131Z,8.84
2023-03-10T03:15:25.892Z,8.84
2023-03-10T03:16:27.664Z,8.83
2023-03-10T03:17:29.335Z,8.81
2023-03-10T03:18:31.072Z,8.8
2023-03-10T03:19:32.812Z,8.8
2023-03-10T03:20:34.561Z,8.8
2023-03-10T03:21:36.271Z,8.78
2023-03-10T03:22:38.016Z,8.78
2023-03-10T03:23:39.758Z,8.77
2023-03-10T03:24:41.472Z,8.75
2023-03-10T03:25:43.216Z,8.74
2023-03-10T03:26:44.944Z,8.72
2023-03-10T03:27:46.682Z,8.72
2023-03-10T03:28:48.431Z,8.71
2023-03-10T03:29:50.145Z,8.7
2023-03-10T03:30:51.884Z,8.7
2023-03-10T03:31:53.705Z,8.7
2023-03-10T03:32:55.359Z,8.7
2023-03-10T03:33:57.077Z,8.71
2023-03-10T03:34:58.819Z,8.71
2023-03-10T03:36:00.637Z,8.72
2023-03-10T03:37:02.294Z,8.73
2023-03-10T03:38:04.071Z,8.72
2023-03-10T03:39:05.758Z,8.71
2023-03-10T03:40:07.487Z,8.72
2023-03-10T03:41:09.368Z,8.71
2023-03-10T03:42:10.953Z,8.71
2023-03-10T03:43:12.677Z,8.71
2023-03-10T03:44:14.411Z,8.71
2023-03-10T03:45:16.168Z,8.7
2023-03-10T03:46:17.995Z,8.7
2023-03-10T03:47:19.621Z,8.7
2023-03-10T03:48:22.492Z,8.7
2023-03-10T03:49:23.088Z,8.69
2023-03-10T03:50:24.838Z,8.68
2023-03-10T03:51:26.591Z,8.67
2023-03-10T03:52:28.292Z,8.66
2023-03-10T03:53:30.025Z,8.65
2023-03-10T03:54:31.762Z,8.66
2023-03-10T03:55:33.500Z,8.64
2023-03-10T03:56:35.243Z,8.63
2023-03-10T03:57:36.955Z,8.61
2023-03-10T03:58:38.708Z,8.61
2023-03-10T03:59:40.423Z,8.6
2023-03-10T04:00:42.171Z,8.59
2023-03-10T04:01:43.905Z,8.58
2023-03-10T04:02:45.665Z,8.57
2023-03-10T04:03:47.434Z,8.57
2023-03-10T04:04:49.110Z,8.56
2023-03-10T04:05:50.823Z,8.56
2023-03-10T04:06:52.577Z,8.55
2023-03-10T04:07:54.291Z,8.54
2023-03-10T04:08:56.043Z,8.55
2023-03-10T04:09:57.769Z,8.54
2023-03-10T04:10:59.505Z,8.54
2023-03-10T04:12:01.247Z,8.55
2023-03-10T04:13:02.963Z,8.55
2023-03-10T04:14:04.718Z,8.56
2023-03-10T04:15:06.440Z,8.55
2023-03-10T04:16:08.245Z,8.56
2023-03-10T04:17:12.199Z,8.56
2023-03-10T04:18:11.636Z,8.55
2023-03-10T04:19:13.346Z,8.56
2023-03-10T04:20:15.104Z,8.55
2023-03-10T04:21:16.844Z,8.56
2023-03-10T04:22:18.574Z,8.55
2023-03-10T04:23:20.309Z,8.55
2023-03-10T04:24:22.038Z,8.55
2023-03-10T04:25:23.765Z,8.55
2023-03-10T04:26:25.489Z,8.55
2023-03-10T04:27:27.246Z,8.55
2023-03-10T04:28:28.968Z,8.56
2023-03-10T04:29:30.712Z,8.55
2023-03-10T04:30:32.440Z,8.56
2023-03-10T04:31:34.311Z,8.56
2023-03-10T04:32:35.993Z,8.56
2023-03-10T04:33:37.656Z,8.55
2023-03-10T04:34:39.375Z,8.54
2023-03-10T04:35:41.191Z,8.54
2023-03-10T04:36:42.852Z,8.52
2023-03-10T04:37:44.595Z,8.52
2023-03-10T04:38:46.329Z,8.51
2023-03-10T04:39:48.050Z,8.52
2023-03-10T04:40:49.793Z,8.52
2023-03-10T04:41:51.525Z,8.51
2023-03-10T04:42:53.256Z,8.51
2023-03-10T04:43:54.987Z,8.52
2023-03-10T04:44:56.716Z,8.53
2023-03-10T04:45:58.505Z,8.53
2023-03-10T04:47:00.181Z,8.55
2023-03-10T04:48:01.898Z,8.54
2023-03-10T04:49:03.652Z,8.54
2023-03-10T04:50:05.393Z,8.54
2023-03-10T04:51:07.116Z,8.54
2023-03-10T04:52:08.849Z,8.54
2023-03-10T04:53:10.588Z,8.52
2023-03-10T04:54:12.319Z,8.54
2023-03-10T04:55:14.037Z,8.53
2023-03-10T04:56:15.778Z,8.53
2023-03-10T04:57:17.528Z,8.52
2023-03-10T04:58:19.261Z,8.52
2023-03-10T04:59:21.174Z,8.53
2023-03-10T05:00:22.910Z,8.53
2023-03-10T05:01:24.553Z,8.52
2023-03-10T05:02:26.177Z,8.53
2023-03-10T05:03:27.923Z,8.53
2023-03-10T05:04:29.684Z,8.54
2023-03-10T05:05:31.377Z,8.53
2023-03-10T05:06:33.123Z,8.53
2023-03-10T05:07:34.843Z,8.52
2023-03-10T05:08:36.588Z,8.55
2023-03-10T05:09:38.319Z,8.54
2023-03-10T05:10:40.060Z,8.55
2023-03-10T05:11:41.809Z,8.55
2023-03-10T05:12:43.511Z,8.56
2023-03-10T05:13:45.237Z,8.57
2023-03-10T05:14:47.013Z,8.58
2023-03-10T05:15:48.714Z,8.59
2023-03-10T05:16:50.439Z,8.61
2023-03-10T05:17:52.178Z,8.62
2023-03-10T05:18:53.915Z,8.63
2023-03-10T05:19:55.652Z,8.64
2023-03-10T05:20:57.382Z,8.65
2023-03-10T05:21:59.115Z,8.67
2023-03-10T05:23:00.846Z,8.68
2023-03-10T05:24:02.579Z,8.69
2023-03-10T05:25:04.324Z,8.7
2023-03-10T05:26:06.064Z,8.71
2023-03-10T05:27:07.790Z,8.72
2023-03-10T05:28:09.518Z,8.74
2023-03-10T05:29:11.285Z,8.75
2023-03-10T05:30:12.992Z,8.76
2023-03-10T05:31:14.777Z,8.77
2023-03-10T05:32:16.514Z,8.78
2023-03-10T05:33:18.175Z,8.79
2023-03-10T05:34:19.900Z,8.8
2023-03-10T05:35:21.673Z,8.8
2023-03-10T05:36:23.366Z,8.82
2023-03-10T05:37:25.130Z,8.82
2023-03-10T05:38:26.850Z,8.83
2023-03-10T05:39:28.584Z,8.84
2023-03-10T05:40:30.317Z,8.85
2023-03-10T05:41:32.033Z,8.86
2023-03-10T05:42:33.791Z,8.85
2023-03-10T05:43:35.522Z,8.86
2023-03-10T05:44:37.276Z,8.86
2023-03-10T05:45:38.997Z,8.87
2023-03-10T05:46:40.778Z,8.88
2023-03-10T05:47:42.464Z,8.87
2023-03-10T05:48:44.198Z,8.88
2023-03-10T05:49:45.925Z,8.88
2023-03-10T05:50:47.669Z,8.87
2023-03-10T05:51:49.389Z,8.87
2023-03-10T05:52:51.116Z,8.88
2023-03-10T05:53:52.855Z,8.88
2023-03-10T05:54:54.596Z,8.88
2023-03-10T05:55:56.328Z,8.87
2023-03-10T05:56:58.078Z,8.88
2023-03-10T05:57:59.806Z,8.89
2023-03-10T05:59:01.541Z,8.89
2023-03-10T06:00:03.274Z,8.89
2023-03-10T06:01:04.986Z,8.89
2023-03-10T06:02:06.734Z,8.89
2023-03-10T06:03:08.520Z,8.88
2023-03-10T06:04:10.225Z,8.88
2023-03-10T06:05:11.926Z,8.88
2023-03-10T06:06:13.654Z,8.88
2023-03-10T06:07:15.400Z,8.88
2023-03-10T06:08:17.115Z,8.89
2023-03-10T06:09:18.864Z,8.88
2023-03-10T06:10:20.602Z,8.88
2023-03-10T06:11:22.336Z,8.89
2023-03-10T06:12:24.050Z,8.89
2023-03-10T06:13:25.796Z,8.89
2023-03-10T06:14:27.522Z,8.88
2023-03-10T06:15:29.279Z,8.87
2023-03-10T06:16:31.083Z,8.86
2023-03-10T06:17:32.823Z,8.86
2023-03-10T06:18:34.473Z,8.86
2023-03-10T06:19:36.213Z,8.85
2023-03-10T06:20:37.943Z,8.84
2023-03-10T06:21:39.649Z,8.84
2023-03-10T06:22:41.386Z,8.83
2023-03-10T06:23:43.156Z,8.81
2023-03-10T06:24:44.864Z,8.8
2023-03-10T06:25:46.587Z,8.79
2023-03-10T06:26:48.327Z,8.79
2023-03-10T06:27:50.058Z,8.78
2023-03-10T06:28:51.802Z,8.78
2023-03-10T06:29:53.547Z,8.77
2023-03-10T06:30:55.260Z,8.76
2023-03-10T06:31:57.065Z,8.76
2023-03-10T06:32:58.773Z,8.74
2023-03-10T06:34:02.066Z,8.72
2023-03-10T06:35:02.202Z,8.72
2023-03-10T06:36:04.036Z,8.72
2023-03-10T06:37:05.673Z,8.71
2023-03-10T06:38:07.404Z,8.71
2023-03-10T06:39:09.142Z,8.71
2023-03-10T06:40:10.877Z,8.71
2023-03-10T06:41:12.610Z,8.71
2023-03-10T06:42:14.338Z,8.72
2023-03-10T06:43:16.102Z,8.72
2023-03-10T06:44:17.814Z,8.73
2023-03-10T06:45:19.531Z,8.73
2023-03-10T06:46:21.401Z,8.73
2023-03-10T06:47:23.009Z,8.74
2023-03-10T06:48:24.746Z,8.75
2023-03-10T06:49:26.480Z,8.76
2023-03-10T06:50:30.474Z,8.77
2023-03-10T06:51:29.957Z,8.78
2023-03-10T06:52:31.672Z,8.78
2023-03-10T06:53:33.399Z,8.79
2023-03-10T06:54:35.157Z,8.79
2023-03-10T06:55:36.874Z,8.79
2023-03-10T06:56:38.605Z,8.8
2023-03-10T06:57:40.339Z,8.8
2023-03-10T06:58:42.074Z,8.81
2023-03-10T06:59:43.827Z,8.82
2023-03-10T07:00:45.558Z,8.83
2023-03-10T07:01:47.269Z,8.84
2023-03-10T07:02:49.043Z,8.85
2023-03-10T07:03:50.745Z,8.85
2023-03-10T07:04:52.579Z,8.86
2023-03-10T07:05:54.232Z,8.86
2023-03-10T07:06:55.937Z,8.87
2023-03-10T07:07:57.700Z,8.88
2023-03-10T07:08:59.394Z,8.87
2023-03-10T07:10:01.148Z,8.88
2023-03-10T07:11:02.878Z,8.88
2023-03-10T07:12:04.605Z,8.87
2023-03-10T07:13:06.360Z,8.87
2023-03-10T07:14:08.074Z,8.87
2023-03-10T07:15:09.810Z,8.86
2023-03-10T07:16:11.557Z,8.86
2023-03-10T07:17:13.410Z,8.85
2023-03-10T07:18:15.022Z,8.83
2023-03-10T07:19:16.745Z,8.83
2023-03-10T07:20:18.491Z,8.81
2023-03-10T07:21:20.226Z,8.8
2023-03-10T07:22:21.937Z,8.78
2023-03-10T07:23:23.679Z,8.77
2023-03-10T07:24:25.413Z,8.74
2023-03-10T07:25:27.160Z,8.71
2023-03-10T07:26:28.877Z,8.69
2023-03-10T07:27:30.621Z,8.65
2023-03-10T07:28:32.352Z,8.62
2023-03-10T07:29:34.092Z,8.58
2023-03-10T07:30:35.900Z,8.55
2023-03-10T07:31:37.550Z,8.5
2023-03-10T07:32:39.335Z,8.46
2023-03-10T07:33:41.048Z,8.4
2023-03-10T07:34:42.766Z,8.37
2023-03-10T07:35:44.546Z,8.33
2023-03-10T07:36:46.353Z,8.31
2023-03-10T07:37:47.944Z,8.26
2023-03-10T07:38:49.693Z,8.24
2023-03-10T07:39:51.436Z,8.21
2023-03-10T07:40:53.160Z,8.19
2023-03-10T07:41:54.884Z,8.16
2023-03-10T07:42:56.628Z,8.15
2023-03-10T07:43:58.376Z,8.15
2023-03-10T07:45:00.088Z,8.12
2023-03-10T07:46:02.154Z,8.11
2023-03-10T07:47:03.546Z,8.11
2023-03-10T07:48:05.298Z,8.08
2023-03-10T07:49:07.052Z,8.08
2023-03-10T07:50:08.752Z,8.07
2023-03-10T07:51:10.480Z,8.06
2023-03-10T07:52:12.211Z,8.04
2023-03-10T07:53:13.965Z,8.03
2023-03-10T07:54:15.694Z,8.01
2023-03-10T07:55:17.417Z,8
2023-03-10T07:56:19.142Z,7.98
2023-03-10T07:57:20.899Z,7.97
2023-03-10T07:58:22.621Z,7.95
2023-03-10T07:59:24.340Z,7.93
2023-03-10T08:00:26.097Z,7.92
2023-03-10T08:01:27.849Z,7.9
2023-03-10T08:02:29.558Z,7.88
2023-03-10T08:03:31.294Z,7.87
2023-03-10T08:04:33.199Z,7.86
2023-03-10T08:05:34.763Z,7.83
2023-03-10T08:06:36.765Z,7.81
2023-03-10T08:07:38.308Z,7.79
2023-03-10T08:08:39.946Z,7.78
2023-03-10T08:09:46.694Z,7.76
2023-03-10T08:10:43.426Z,7.74
2023-03-10T08:11:45.168Z,7.72
2023-03-10T08:12:47.019Z,7.71
2023-03-10T08:13:48.691Z,7.7
2023-03-10T08:14:50.381Z,7.69
2023-03-10T08:15:52.137Z,7.67
2023-03-10T08:16:53.836Z,7.66
2023-03-10T08:17:55.559Z,7.65
2023-03-10T08:18:57.294Z,7.64
2023-03-10T08:19:59.042Z,7.64
2023-03-10T08:21:00.767Z,7.65
2023-03-10T08:22:02.513Z,7.66
2023-03-10T08:23:04.271Z,7.67
2023-03-10T08:24:05.969Z,7.69
2023-03-10T08:25:07.712Z,7.7
2023-03-10T08:26:09.435Z,7.71
2023-03-10T08:27:11.167Z,7.72
2023-03-10T08:28:12.886Z,7.72
2023-03-10T08:29:14.626Z,7.73
2023-03-10T08:30:16.369Z,7.74
2023-03-10T08:31:18.149Z,7.73
2023-03-10T08:32:19.903Z,7.74
2023-03-10T08:33:21.566Z,7.74
2023-03-10T08:34:23.342Z,7.75
2023-03-10T08:35:25.042Z,7.77
2023-03-10T08:36:26.781Z,7.8
2023-03-10T08:37:28.512Z,7.91
2023-03-10T08:38:30.227Z,8.07
2023-03-10T08:39:31.994Z,8.12
2023-03-10T08:40:33.722Z,8.18
2023-03-10T08:41:36.420Z,8.3
2023-03-10T08:42:37.177Z,8.35
2023-03-10T08:43:38.915Z,8.42
2023-03-10T08:44:40.649Z,8.47
2023-03-10T08:45:47.397Z,8.53
2023-03-10T08:46:46.389Z,8.59
2023-03-10T08:47:45.829Z,8.64
2023-03-10T08:48:47.617Z,8.66
2023-03-10T08:49:49.313Z,8.68
2023-03-10T08:50:51.044Z,8.71
2023-03-10T08:51:52.839Z,8.72
2023-03-10T08:52:54.497Z,8.71
2023-03-10T08:53:56.253Z,8.7
2023-03-10T08:54:59.849Z,8.71
2023-03-10T08:55:59.731Z,8.72
2023-03-10T08:57:01.457Z,8.74
2023-03-10T08:58:03.173Z,8.77
2023-03-10T08:59:04.918Z,8.8
2023-03-10T09:00:06.679Z,8.82
2023-03-10T09:01:08.415Z,8.83
2023-03-10T09:02:10.230Z,8.85
2023-03-10T09:03:13.775Z,8.85
2023-03-10T09:04:13.690Z,8.88
2023-03-10T09:05:15.340Z,8.93
2023-03-10T09:06:17.067Z,8.96
2023-03-10T09:07:18.806Z,9.02
2023-03-10T09:08:20.524Z,9.07
2023-03-10T09:09:22.273Z,9.11
2023-03-10T09:10:23.998Z,9.17
2023-03-10T09:11:25.755Z,9.23
2023-03-10T09:12:33.478Z,9.28
2023-03-10T09:13:29.188Z,9.31
2023-03-10T09:14:30.932Z,9.34
2023-03-10T09:15:32.688Z,9.32
2023-03-10T09:16:34.512Z,9.29
2023-03-10T09:17:37.232Z,9.27
2023-03-10T09:18:37.868Z,9.21
2023-03-10T09:19:39.590Z,9.16
2023-03-10T09:20:41.348Z,9.16
2023-03-10T09:21:43.064Z,9.18
2023-03-10T09:22:44.865Z,9.23
2023-03-10T09:23:46.534Z,9.36
2023-03-10T09:24:48.256Z,9.34
2023-03-10T09:25:50.002Z,9.38
2023-03-10T09:26:51.720Z,9.4
2023-03-10T09:27:53.450Z,9.5
2023-03-10T09:28:56.981Z,9.55
2023-03-10T09:29:58.052Z,9.58
2023-03-10T09:30:58.675Z,9.62
2023-03-10T09:32:00.425Z,9.75
2023-03-10T09:33:02.260Z,9.79
2023-03-10T09:34:04.060Z,9.77
2023-03-10T09:35:05.588Z,9.8
2023-03-10T09:36:08.148Z,9.79
2023-03-10T09:37:09.066Z,9.78
2023-03-10T09:38:10.809Z,9.76
2023-03-10T09:39:12.550Z,9.76
2023-03-10T09:40:14.277Z,9.76
2023-03-10T09:41:16.015Z,9.76
2023-03-10T09:42:25.504Z,9.76
2023-03-10T09:43:19.486Z,9.76
2023-03-10T09:44:21.198Z,9.74
2023-03-10T09:45:22.962Z,9.75
2023-03-10T09:46:24.855Z,9.72
2023-03-10T09:47:26.422Z,9.73
2023-03-10T09:48:28.152Z,9.8
2023-03-10T09:49:29.872Z,10
2023-03-10T09:50:31.605Z,10.11
2023-03-10T09:51:33.341Z,10.24
2023-03-10T09:52:35.067Z,10.26
2023-03-10T09:53:36.831Z,10.27
2023-03-10T09:54:41.116Z,10.37
2023-03-10T09:55:47.114Z,10.51
2023-03-10T09:56:41.995Z,10.55
2023-03-10T09:57:43.738Z,10.54
2023-03-10T09:58:45.492Z,10.53
2023-03-10T09:59:47.215Z,10.53
2023-03-10T10:00:48.932Z,10.5
2023-03-10T10:01:50.701Z,10.44
2023-03-10T10:02:52.521Z,10.41
2023-03-10T10:03:54.233Z,10.38
2023-03-10T10:04:56.024Z,10.28
2023-03-10T10:05:57.647Z,10.23
2023-03-10T10:06:59.363Z,10.16
2023-03-10T10:08:01.080Z,10.06
2023-03-10T10:09:05.015Z,9.97
2023-03-10T10:10:04.590Z,9.89
2023-03-10T10:11:06.293Z,9.85
2023-03-10T10:12:08.030Z,9.77
2023-03-10T10:13:09.761Z,9.73
2023-03-10T10:14:15.875Z,9.7
2023-03-10T10:15:13.233Z,9.72
2023-03-10T10:16:28.097Z,9.68
2023-03-10T10:17:16.734Z,9.66
2023-03-10T10:18:20.926Z,9.67
2023-03-10T10:19:20.140Z,9.68
2023-03-10T10:20:21.880Z,9.69
2023-03-10T10:21:30.575Z,9.73
2023-03-10T10:22:25.385Z,9.77
2023-03-10T10:23:27.092Z,9.77
2023-03-10T10:24:28.830Z,9.82
2023-03-10T10:25:30.590Z,9.89
2023-03-10T10:26:32.284Z,9.93
2023-03-10T10:27:34.298Z,10.01
2023-03-10T10:28:35.761Z,10.13
2023-03-10T10:29:37.489Z,10.32
2023-03-10T10:30:39.308Z,10.46
2023-03-10T10:31:40.963Z,10.67
2023-03-10T10:32:45.053Z,10.86
2023-03-10T10:33:44.411Z,11.04
2023-03-10T10:34:46.178Z,11.11
2023-03-10T10:35:47.914Z,11.24
2023-03-10T10:36:49.616Z,11.31
2023-03-10T10:37:51.346Z,11.37
2023-03-10T10:38:53.090Z,11.47
2023-03-10T10:39:54.842Z,11.47
2023-03-10T10:40:56.553Z,11.58
2023-03-10T10:41:58.286Z,11.65
2023-03-10T10:43:00.025Z,11.84
2023-03-10T10:44:01.747Z,11.87
2023-03-10T10:45:03.488Z,11.81
2023-03-10T10:46:05.251Z,11.77
2023-03-10T10:47:06.964Z,11.67
2023-03-10T10:48:08.692Z,11.61
2023-03-10T10:49:10.672Z,11.53
2023-03-10T10:50:12.221Z,11.48
2023-03-10T10:51:13.905Z,11.41
2023-03-10T10:52:15.651Z,11.36
2023-03-10T10:53:17.356Z,11.33
2023-03-10T10:54:19.105Z,11.26
2023-03-10T10:55:20.845Z,11.23
2023-03-10T10:56:22.562Z,11.15
2023-03-10T10:57:24.301Z,11.08
2023-03-10T10:58:26.047Z,11.04
2023-03-10T10:59:27.772Z,10.95
2023-03-10T11:00:29.522Z,10.93
2023-03-10T11:01:31.326Z,10.9
2023-03-10T11:02:33.047Z,10.9
2023-03-10T11:03:34.731Z,10.9
2023-03-10T11:04:36.488Z,10.89
2023-03-10T11:05:38.200Z,10.93
2023-03-10T11:06:39.894Z,11.01
2023-03-10T11:07:41.629Z,11.07
2023-03-10T11:08:43.366Z,11.13
2023-03-10T11:09:45.087Z,11.22
2023-03-10T11:10:46.839Z,11.25
2023-03-10T11:11:48.573Z,11.33
2023-03-10T11:12:50.289Z,11.49
2023-03-10T11:13:52.039Z,11.74
2023-03-10T11:14:54.708Z,11.92
2023-03-10T11:15:55.610Z,12.03
2023-03-10T11:16:57.234Z,12.06
2023-03-10T11:17:58.955Z,12.11
2023-03-10T11:19:00.692Z,12.14
2023-03-10T11:20:02.457Z,12.17
2023-03-10T11:21:04.160Z,12.29
2023-03-10T11:22:05.891Z,12.31
2023-03-10T11:23:07.645Z,12.29
2023-03-10T11:24:09.386Z,12.2
2023-03-10T11:25:11.101Z,12.09
2023-03-10T11:26:13.059Z,11.99
2023-03-10T11:27:14.555Z,11.87
2023-03-10T11:28:16.300Z,11.73
2023-03-10T11:29:18.297Z,11.61
2023-03-10T11:30:19.868Z,11.49
2023-03-10T11:31:21.654Z,11.34
2023-03-10T11:32:23.267Z,11.19
2023-03-10T11:33:24.971Z,11.1
2023-03-10T11:34:26.716Z,11
2023-03-10T11:35:28.468Z,10.89
2023-03-10T11:36:30.184Z,10.75
2023-03-10T11:37:31.889Z,10.67
2023-03-10T11:38:33.652Z,10.58
2023-03-10T11:39:35.371Z,10.5
2023-03-10T11:40:37.098Z,10.42
2023-03-10T11:41:38.839Z,10.39
2023-03-10T11:42:40.558Z,10.35
2023-03-10T11:43:42.294Z,10.33
2023-03-10T11:44:44.041Z,10.32
2023-03-10T11:45:45.793Z,10.28
2023-03-10T11:46:47.537Z,10.24
2023-03-10T11:47:49.243Z,10.23
2023-03-10T11:48:50.968Z,10.22
2023-03-10T11:49:52.714Z,10.26
2023-03-10T11:50:54.601Z,10.24
2023-03-10T11:51:56.157Z,10.23
2023-03-10T11:52:58.047Z,10.23
2023-03-10T11:53:59.638Z,10.23
2023-03-10T11:55:01.378Z,10.24
2023-03-10T11:56:03.108Z,10.24
2023-03-10T11:57:04.822Z,10.25
2023-03-10T11:58:06.560Z,10.21
2023-03-10T11:59:08.296Z,10.21
2023-03-10T12:00:10.122Z,10.2
2023-03-10T12:01:11.789Z,10.19
2023-03-10T12:02:13.508Z,10.19
2023-03-10T12:03:15.277Z,10.2
2023-03-10T12:04:16.964Z,10.18
2023-03-10T12:05:18.792Z,10.15
2023-03-10T12:06:20.443Z,10.11
2023-03-10T12:07:22.162Z,10.07
2023-03-10T12:08:23.909Z,10.04
2023-03-10T12:09:25.714Z,9.96
2023-03-10T12:10:27.350Z,9.91
2023-03-10T12:11:29.112Z,9.86
2023-03-10T12:12:30.833Z,9.8
2023-03-10T12:13:32.581Z,9.74
2023-03-10T12:14:34.312Z,9.67
2023-03-10T12:15:36.036Z,9.56
2023-03-10T12:16:37.970Z,9.49
2023-03-10T12:17:39.507Z,9.41
2023-03-10T12:18:41.228Z,9.32
2023-03-10T12:19:42.976Z,9.24
2023-03-10T12:20:44.700Z,9.19
2023-03-10T12:21:46.450Z,9.15
2023-03-10T12:22:48.179Z,9.1
2023-03-10T12:23:49.918Z,9.06
2023-03-10T12:24:51.635Z,9.04
2023-03-10T12:25:53.399Z,9.03
2023-03-10T12:26:55.125Z,9
2023-03-10T12:27:56.823Z,9.01
2023-03-10T12:28:58.566Z,8.99
2023-03-10T12:30:00.319Z,8.96
2023-03-10T12:31:02.104Z,8.95
2023-03-10T12:32:03.846Z,8.96
2023-03-10T12:33:05.497Z,8.96
2023-03-10T12:34:07.225Z,8.97
2023-03-10T12:35:08.962Z,8.96
2023-03-10T12:36:10.719Z,8.95
2023-03-10T12:37:12.453Z,8.93
2023-03-10T12:38:14.164Z,8.93
2023-03-10T12:39:15.907Z,8.91
2023-03-10T12:40:17.678Z,8.9
2023-03-10T12:41:19.378Z,8.87
2023-03-10T12:42:21.116Z,8.82
2023-03-10T12:43:22.822Z,8.79
2023-03-10T12:44:24.581Z,8.75
2023-03-10T12:45:27.308Z,8.71
2023-03-10T12:46:28.121Z,8.66
2023-03-10T12:47:29.781Z,8.6
2023-03-10T12:48:31.506Z,8.56
2023-03-10T12:49:33.237Z,8.58
2023-03-10T12:50:35.009Z,8.57
2023-03-10T12:51:36.694Z,8.59
2023-03-10T12:52:38.448Z,8.6
2023-03-10T12:53:40.160Z,8.59
2023-03-10T12:54:41.892Z,8.58
2023-03-10T12:55:43.646Z,8.6
2023-03-10T12:56:45.436Z,8.6
2023-03-10T12:57:47.101Z,8.61
2023-03-10T12:58:48.838Z,8.58
2023-03-10T12:59:50.554Z,8.55
2023-03-10T13:00:52.404Z,8.52
2023-03-10T13:01:56.130Z,8.5
2023-03-10T13:02:55.783Z,8.47
2023-03-10T13:03:57.591Z,8.47
2023-03-10T13:04:59.256Z,8.45
2023-03-10T13:06:00.968Z,8.43
2023-03-10T13:07:02.751Z,8.41
2023-03-10T13:08:04.447Z,8.38
2023-03-10T13:09:06.176Z,8.39
2023-03-10T13:10:07.904Z,8.39
2023-03-10T13:11:09.625Z,8.4
2023-03-10T13:12:11.356Z,8.41
2023-03-10T13:13:13.120Z,8.44
2023-03-10T13:14:14.840Z,8.47
2023-03-10T13:15:16.575Z,8.49
2023-03-10T13:16:18.356Z,8.53
2023-03-10T13:17:20.067Z,8.57
2023-03-10T13:18:21.792Z,8.61
2023-03-10T13:19:23.514Z,8.64
2023-03-10T13:20:25.223Z,8.66
2023-03-10T13:21:26.984Z,8.67
2023-03-10T13:22:28.695Z,8.7
2023-03-10T13:23:30.479Z,8.73
2023-03-10T13:24:32.175Z,8.72
2023-03-10T13:25:33.930Z,8.72
2023-03-10T13:26:35.659Z,8.72
2023-03-10T13:27:37.378Z,8.74
2023-03-10T13:28:39.111Z,8.76
2023-03-10T13:29:40.854Z,8.74
2023-03-10T13:30:42.577Z,8.73
2023-03-10T13:31:44.379Z,8.68
2023-03-10T13:32:46.122Z,8.67
2023-03-10T13:33:53.443Z,8.65
2023-03-10T13:34:49.500Z,8.64
2023-03-10T13:35:51.302Z,8.62
2023-03-10T13:36:52.967Z,8.6
2023-03-10T13:37:54.693Z,8.59
2023-03-10T13:38:56.503Z,8.56
2023-03-10T13:39:58.190Z,8.54
2023-03-10T13:40:59.905Z,8.5